CheckWX is a tool to help pilots better visualize weather data.  It is not intended as a substitute for an official pre-flight weather briefing.

02:37:25 UTC

KHIB TAF
Range Regional Airport
Hibbing, Minnesota, USA
KHIB 232328Z 2400/2424 16005KT P6SM SKC FM240800 VRB03KT 4SM BR SKC FM241000 VRB03KT 1SM BR SCT002 FM241400 16004KT P6SM SKC FM241700 18010G18KT P6SM SCT200

Aug-24@
00:00 UTC

Aug-24 @ 00:00 UTC

Aug-24@
08:00 UTC

Aug-24 @ 08:00 UTC

KHIB 232328Z 2400/2424 16005KT P6SM SKC
Wind
  • 160° at 5 KTS
Cloud Levels
  • Clear skies

Aug-24@
08:00 UTC

Aug-24 @ 08:00 UTC

Aug-24@
10:00 UTC

Aug-24 @ 10:00 UTC

FM240800 VRB03KT 4SM BR SKC

From

From Standard forecast or significant change

Wind
  • Variable at 3 KTS
Conditions
Mist
Cloud Levels
  • Clear skies

Aug-24@
10:00 UTC

Aug-24 @ 10:00 UTC

Aug-24@
14:00 UTC

Aug-24 @ 14:00 UTC

FM241000 VRB03KT 1SM BR SCT002

From

From Standard forecast or significant change

Wind
  • Variable at 3 KTS
Conditions
Mist
Cloud Levels
  • Scattered at 200' AGL

Aug-24@
14:00 UTC

Aug-24 @ 14:00 UTC

Aug-24@
17:00 UTC

Aug-24 @ 17:00 UTC

FM241400 16004KT P6SM SKC

From

From Standard forecast or significant change

Wind
  • 160° at 4 KTS
Cloud Levels
  • Clear skies

Aug-24@
17:00 UTC

Aug-24 @ 17:00 UTC

Aug-25@
00:00 UTC

Aug-25 @ 00:00 UTC

FM241700 18010G18KT P6SM SCT200

From

From Standard forecast or significant change

Wind
  • 180° at 10 KTS
  • {Gusting to 18 KTS
Cloud Levels
  • Scattered at 20,000' AGL